Погода Луангпхабангна 2 недели

Луангпхабанг, Лаос

29 февраля-13 марта
  • 29февраля
    Сегодня
    +21°
    +37°
    Ясно и безоблачно
    ВремяПогодаТемператураВлажностьДавлениеВетер, м/сВероятность осадков
    01:00Небольшая облачность+24°C81 %732 мм1.3 м/с2 %
    04:00Ясно и безоблачно+22°C86 %731 мм0.8 м/с2 %
    07:00Ясно и безоблачно+21°C90 %732 мм0.6 м/с4 %
    10:00Ясно и безоблачно+27°C50 %733 мм1.2 м/с3 %
    13:00Ясно и безоблачно+33°C30 %731 мм2.6 м/с10 %
    16:00Практически безоблачно+36°C31 %729 мм3.0 м/с8 %
    19:00Ясно и безоблачно+31°C45 %730 мм1.1 м/с3 %
    22:00Ясно и безоблачно+27°C68 %732 мм1.0 м/с2 %
  • 01марта
    Пятница
    +19°
    +36°
    Практически безоблачно
    ВремяПогодаТемператураВлажностьДавлениеВетер, м/сВероятность осадков
    01:00Ясно и безоблачно+25°C82 %732 мм0.8 м/с2 %
    04:00Ясно и безоблачно+23°C91 %732 мм0.5 м/с2 %
    07:00Практически безоблачно+21°C95 %734 мм0.7 м/с6 %
    10:00Облачно с прояснениями+27°C64 %735 мм1.1 м/с15 %
    13:00Практически безоблачно+33°C46 %733 мм2.4 м/с23 %
    16:00Практически безоблачно+35°C39 %731 мм2.9 м/с17 %
    19:00Практически безоблачно+30°C56 %732 мм1.2 м/с14 %
    22:00Ясно и безоблачно+26°C81 %734 мм1.0 м/с7 %
  • 02марта
    Суббота
    +19°
    +33°
    Небольшая облачность
    ВремяПогодаТемператураВлажностьДавлениеВетер, м/сВероятность осадков
    01:00Ясно и безоблачно+23°C93 %733 мм0.3 м/с2 %
    04:00Практически безоблачно+21°C99 %733 мм0.5 м/с2 %
    07:00Пасмурно, сплошная облачность+19°C93 %735 мм0.9 м/с3 %
    10:00Пасмурно, сплошная облачность+24°C66 %736 мм1.1 м/с12 %
    13:00Небольшая облачность+31°C47 %734 мм1.8 м/с28 %
    16:00Практически безоблачно+33°C39 %731 мм2.7 м/с41 %
    19:00Ясно и безоблачно+29°C49 %731 мм0.9 м/с3 %
    22:00Ясно и безоблачно+25°C71 %733 мм1.0 м/с2 %
  • 03марта
    Воскресенье
    +20°
    +35°
    Практически безоблачно
    ВремяПогодаТемператураВлажностьДавлениеВетер, м/сВероятность осадков
    01:00Ясно и безоблачно+22°C89 %733 мм1.0 м/с2 %
    04:00Ясно и безоблачно+21°C93 %732 мм0.6 м/с2 %
    07:00Практически безоблачно+20°C93 %733 мм0.7 м/с5 %
    10:00Ясно и безоблачно+26°C56 %735 мм1.3 м/с4 %
    13:00Практически безоблачно+32°C36 %732 мм2.8 м/с9 %
    16:00Ясно и безоблачно+35°C32 %729 мм3.3 м/с4 %
    19:00Ясно и безоблачно+30°C44 %729 мм1.2 м/с2 %
    22:00Ясно и безоблачно+26°C64 %731 мм1.0 м/с2 %
  • 04марта
    Понедельник
    +19°
    +37°
    Ясно и безоблачно
    ВремяПогодаТемператураВлажностьДавлениеВетер, м/сВероятность осадков
    01:00Ясно и безоблачно+23°C81 %730 мм1.1 м/с2 %
    04:00Ясно и безоблачно+21°C88 %730 мм0.7 м/с2 %
    07:00Ясно и безоблачно+21°C92 %731 мм0.8 м/с2 %
    10:00Ясно и безоблачно+27°C50 %732 мм1.8 м/с2 %
    13:00Ясно и безоблачно+33°C27 %729 мм2.7 м/с2 %
    16:00Ясно и безоблачно+36°C15 %727 мм3.4 м/с2 %
    19:00Ясно и безоблачно+31°C31 %728 мм0.9 м/с2 %
    22:00Ясно и безоблачно+26°C45 %729 мм0.8 м/с2 %
Мы используем cookies
Соглашаюсь